Chautauqua County-Jamestown Airport Jamestown US
ICAO: KJHW
IATA: JHW
Category: Medium
Scheduled Services: No

Elevation: 1723 ft
TransAlt. 18000 ft.

Airport Communications:
ERIE APP/DEP:126.05
AWOS 3:118.425
BUFFALO RDO:114.7
CTAF/UNICOM:122.7

KJHW Zoom In..

If you have problems with the map follow the link
https://www.worldairports.se/pages/airport.php?
ICAO=KJHW

Runways:

(A) RW 07 length 5299 ft width 100 ft
---- / hdg 69

(B) RW 13 length 4500 ft width 100 ft
---- / hdg 129

(C) RW 25 length 5299 ft width 100 ft
ILS 109.70 / hdg 249

(D) RW 31 length 4500 ft width 100 ft
---- / hdg 309

Location; KJHW
Day. 20 / Time. 20.56 Zulu
* Altimeter: 29.97
* Temperature: -03° c. -26.6°f.
* Wind from: 150° Speed 11 kn with Gusts up to 16 kn.
Dewpoint: -04° c.
Visibility: 9 Statute Miles.
Clouds: Overcast 800 ft.

KJHW 202056Z AUTO 15011G16KT 9SM OVC008 M03/M04 A2997 RMK AO2 CIG 006V011 SLP180 60000 T10281039 58044 FZRANO


Wind From 150°
Speed 11 kn.

 
 
jpsmedia.com for Web Design worldairports.se 2019   terms of use